sensor_id;sensor_type;location;lat;lon;timestamp;temperature;humidity
11647;DHT22;5880;52.342;9.662;2023-11-22T00:01:05;7.50;64.90
11647;DHT22;5880;52.342;9.662;2023-11-22T00:03:32;7.40;64.70
11647;DHT22;5880;52.342;9.662;2023-11-22T00:05:58;7.40;64.80
11647;DHT22;5880;52.342;9.662;2023-11-22T00:08:24;7.30;64.70
11647;DHT22;5880;52.342;9.662;2023-11-22T00:10:49;7.30;64.90
11647;DHT22;5880;52.342;9.662;2023-11-22T00:13:15;7.30;65.00
11647;DHT22;5880;52.342;9.662;2023-11-22T00:15:41;7.20;65.00
11647;DHT22;5880;52.342;9.662;2023-11-22T00:18:06;7.20;65.10
11647;DHT22;5880;52.342;9.662;2023-11-22T00:20:32;7.10;65.20
11647;DHT22;5880;52.342;9.662;2023-11-22T00:22:59;7.10;65.30
11647;DHT22;5880;52.342;9.662;2023-11-22T00:25:25;7.10;65.30
11647;DHT22;5880;52.342;9.662;2023-11-22T00:27:50;7.10;65.40
11647;DHT22;5880;52.342;9.662;2023-11-22T00:30:16;7.00;65.40
11647;DHT22;5880;52.342;9.662;2023-11-22T00:32:42;7.00;65.40
11647;DHT22;5880;52.342;9.662;2023-11-22T00:35:08;7.00;66.20
11647;DHT22;5880;52.342;9.662;2023-11-22T00:37:34;7.00;65.50
11647;DHT22;5880;52.342;9.662;2023-11-22T00:40:03;6.90;65.50
11647;DHT22;5880;52.342;9.662;2023-11-22T00:42:36;6.90;65.50
11647;DHT22;5880;52.342;9.662;2023-11-22T00:45:03;6.90;65.60
11647;DHT22;5880;52.342;9.662;2023-11-22T00:47:31;6.90;65.60
11647;DHT22;5880;52.342;9.662;2023-11-22T00:49:58;6.80;65.50
11647;DHT22;5880;52.342;9.662;2023-11-22T00:52:24;6.80;65.60
11647;DHT22;5880;52.342;9.662;2023-11-22T00:54:49;6.80;65.60
11647;DHT22;5880;52.342;9.662;2023-11-22T00:57:15;6.80;65.70
11647;DHT22;5880;52.342;9.662;2023-11-22T00:59:41;6.70;65.70
11647;DHT22;5880;52.342;9.662;2023-11-22T01:02:07;6.70;65.70
11647;DHT22;5880;52.342;9.662;2023-11-22T01:04:34;6.70;65.80
11647;DHT22;5880;52.342;9.662;2023-11-22T01:07:02;6.60;65.60
11647;DHT22;5880;52.342;9.662;2023-11-22T01:09:29;6.70;65.70
11647;DHT22;5880;52.342;9.662;2023-11-22T01:11:57;6.60;65.70
11647;DHT22;5880;52.342;9.662;2023-11-22T01:14:23;6.50;65.70
11647;DHT22;5880;52.342;9.662;2023-11-22T01:16:49;6.50;65.70
11647;DHT22;5880;52.342;9.662;2023-11-22T01:19:15;6.50;65.70
11647;DHT22;5880;52.342;9.662;2023-11-22T01:21:41;6.50;65.80
11647;DHT22;5880;52.342;9.662;2023-11-22T01:24:07;6.40;65.70
11647;DHT22;5880;52.342;9.662;2023-11-22T01:26:33;6.40;65.70
11647;DHT22;5880;52.342;9.662;2023-11-22T01:28:59;6.40;65.80
11647;DHT22;5880;52.342;9.662;2023-11-22T01:31:25;6.40;65.90
11647;DHT22;5880;52.342;9.662;2023-11-22T01:33:52;6.40;65.90
11647;DHT22;5880;52.342;9.662;2023-11-22T01:36:19;6.30;66.00
11647;DHT22;5880;52.342;9.662;2023-11-22T01:38:45;6.30;66.00
11647;DHT22;5880;52.342;9.662;2023-11-22T01:41:12;6.30;66.00
11647;DHT22;5880;52.342;9.662;2023-11-22T01:43:39;6.30;66.00
11647;DHT22;5880;52.342;9.662;2023-11-22T01:46:07;6.30;66.00
11647;DHT22;5880;52.342;9.662;2023-11-22T01:48:34;6.30;65.90
11647;DHT22;5880;52.342;9.662;2023-11-22T01:51:02;6.20;65.80
11647;DHT22;5880;52.342;9.662;2023-11-22T01:53:29;6.20;65.80
11647;DHT22;5880;52.342;9.662;2023-11-22T01:55:57;6.20;65.80
11647;DHT22;5880;52.342;9.662;2023-11-22T01:58:23;6.20;65.80
11647;DHT22;5880;52.342;9.662;2023-11-22T02:00:50;6.10;65.90
11647;DHT22;5880;52.342;9.662;2023-11-22T02:03:17;6.10;66.00
11647;DHT22;5880;52.342;9.662;2023-11-22T02:05:44;6.10;66.00
11647;DHT22;5880;52.342;9.662;2023-11-22T02:08:11;6.10;66.00
11647;DHT22;5880;52.342;9.662;2023-11-22T02:10:38;6.10;66.10
11647;DHT22;5880;52.342;9.662;2023-11-22T02:13:05;6.00;66.10
11647;DHT22;5880;52.342;9.662;2023-11-22T02:15:33;6.00;66.10
11647;DHT22;5880;52.342;9.662;2023-11-22T02:17:59;6.10;66.20
11647;DHT22;5880;52.342;9.662;2023-11-22T02:20:25;6.00;66.20
11647;DHT22;5880;52.342;9.662;2023-11-22T02:22:51;6.10;66.30
11647;DHT22;5880;52.342;9.662;2023-11-22T02:25:18;6.00;66.30
11647;DHT22;5880;52.342;9.662;2023-11-22T02:27:44;6.00;66.20
11647;DHT22;5880;52.342;9.662;2023-11-22T02:30:10;6.00;66.20
11647;DHT22;5880;52.342;9.662;2023-11-22T02:32:36;6.00;66.20
11647;DHT22;5880;52.342;9.662;2023-11-22T02:35:02;6.00;66.10
11647;DHT22;5880;52.342;9.662;2023-11-22T02:37:32;5.90;66.10
11647;DHT22;5880;52.342;9.662;2023-11-22T02:40:09;5.90;66.20
11647;DHT22;5880;52.342;9.662;2023-11-22T02:42:43;5.90;66.30
11647;DHT22;5880;52.342;9.662;2023-11-22T02:45:09;5.90;66.20
11647;DHT22;5880;52.342;9.662;2023-11-22T02:47:35;5.90;66.20
11647;DHT22;5880;52.342;9.662;2023-11-22T02:50:03;5.90;66.30
11647;DHT22;5880;52.342;9.662;2023-11-22T02:52:31;5.80;66.20
11647;DHT22;5880;52.342;9.662;2023-11-22T02:54:57;5.80;66.10
11647;DHT22;5880;52.342;9.662;2023-11-22T02:57:24;5.80;66.20
11647;DHT22;5880;52.342;9.662;2023-11-22T02:59:50;5.80;66.30
11647;DHT22;5880;52.342;9.662;2023-11-22T03:02:15;5.70;66.30
11647;DHT22;5880;52.342;9.662;2023-11-22T03:04:43;5.70;66.40
11647;DHT22;5880;52.342;9.662;2023-11-22T03:07:09;5.70;66.30
11647;DHT22;5880;52.342;9.662;2023-11-22T03:09:35;5.70;66.30
11647;DHT22;5880;52.342;9.662;2023-11-22T03:12:02;5.70;66.30
11647;DHT22;5880;52.342;9.662;2023-11-22T03:14:28;5.60;66.30
11647;DHT22;5880;52.342;9.662;2023-11-22T03:16:55;5.70;66.50
11647;DHT22;5880;52.342;9.662;2023-11-22T03:19:21;5.70;66.60
11647;DHT22;5880;52.342;9.662;2023-11-22T03:21:46;5.70;66.70
11647;DHT22;5880;52.342;9.662;2023-11-22T03:24:12;5.70;66.80
11647;DHT22;5880;52.342;9.662;2023-11-22T03:26:38;5.70;67.00
11647;DHT22;5880;52.342;9.662;2023-11-22T03:29:04;5.70;67.20
11647;DHT22;5880;52.342;9.662;2023-11-22T03:31:30;5.70;67.10
11647;DHT22;5880;52.342;9.662;2023-11-22T03:33:57;5.80;67.10
11647;DHT22;5880;52.342;9.662;2023-11-22T03:36:22;5.80;67.00
11647;DHT22;5880;52.342;9.662;2023-11-22T03:38:49;5.80;66.90
11647;DHT22;5880;52.342;9.662;2023-11-22T03:41:16;5.80;66.80
11647;DHT22;5880;52.342;9.662;2023-11-22T03:43:46;5.90;66.90
11647;DHT22;5880;52.342;9.662;2023-11-22T03:46:12;5.80;66.80
11647;DHT22;5880;52.342;9.662;2023-11-22T03:48:38;5.80;66.80
11647;DHT22;5880;52.342;9.662;2023-11-22T03:51:03;5.80;66.80
11647;DHT22;5880;52.342;9.662;2023-11-22T03:53:29;5.80;66.80
11647;DHT22;5880;52.342;9.662;2023-11-22T03:55:55;5.80;66.80
11647;DHT22;5880;52.342;9.662;2023-11-22T03:58:20;5.80;66.80
11647;DHT22;5880;52.342;9.662;2023-11-22T04:00:46;5.80;66.80
11647;DHT22;5880;52.342;9.662;2023-11-22T04:03:12;5.80;66.80
11647;DHT22;5880;52.342;9.662;2023-11-22T04:05:38;5.80;66.80
11647;DHT22;5880;52.342;9.662;2023-11-22T04:08:04;5.80;66.70
11647;DHT22;5880;52.342;9.662;2023-11-22T04:10:30;5.80;66.70
11647;DHT22;5880;52.342;9.662;2023-11-22T04:12:56;5.80;66.70
11647;DHT22;5880;52.342;9.662;2023-11-22T04:15:22;5.80;66.70
11647;DHT22;5880;52.342;9.662;2023-11-22T04:17:48;5.80;66.70
11647;DHT22;5880;52.342;9.662;2023-11-22T04:20:14;5.80;66.70
11647;DHT22;5880;52.342;9.662;2023-11-22T04:22:41;5.80;66.60
11647;DHT22;5880;52.342;9.662;2023-11-22T04:25:10;5.70;66.60
11647;DHT22;5880;52.342;9.662;2023-11-22T04:27:39;5.80;66.50
11647;DHT22;5880;52.342;9.662;2023-11-22T04:30:07;5.70;66.60
11647;DHT22;5880;52.342;9.662;2023-11-22T04:32:36;5.70;66.60
11647;DHT22;5880;52.342;9.662;2023-11-22T04:35:02;5.70;66.70
11647;DHT22;5880;52.342;9.662;2023-11-22T04:37:31;5.70;66.60
11647;DHT22;5880;52.342;9.662;2023-11-22T04:39:58;5.70;66.60
11647;DHT22;5880;52.342;9.662;2023-11-22T04:42:26;5.60;66.40
11647;DHT22;5880;52.342;9.662;2023-11-22T04:44:53;5.60;66.50
11647;DHT22;5880;52.342;9.662;2023-11-22T04:47:19;5.60;66.50
11647;DHT22;5880;52.342;9.662;2023-11-22T04:49:47;5.60;66.50
11647;DHT22;5880;52.342;9.662;2023-11-22T04:52:13;5.60;66.50
11647;DHT22;5880;52.342;9.662;2023-11-22T04:54:39;5.50;66.50
11647;DHT22;5880;52.342;9.662;2023-11-22T04:57:05;5.50;66.50
11647;DHT22;5880;52.342;9.662;2023-11-22T04:59:32;5.50;66.50
11647;DHT22;5880;52.342;9.662;2023-11-22T05:01:57;5.50;66.60
11647;DHT22;5880;52.342;9.662;2023-11-22T05:04:23;5.50;66.50
11647;DHT22;5880;52.342;9.662;2023-11-22T05:06:49;5.40;66.40
11647;DHT22;5880;52.342;9.662;2023-11-22T05:09:14;5.50;66.50
11647;DHT22;5880;52.342;9.662;2023-11-22T05:11:41;5.40;66.40
11647;DHT22;5880;52.342;9.662;2023-11-22T05:14:07;5.40;66.20
11647;DHT22;5880;52.342;9.662;2023-11-22T05:16:33;5.40;66.10
11647;DHT22;5880;52.342;9.662;2023-11-22T05:19:00;5.30;66.10
11647;DHT22;5880;52.342;9.662;2023-11-22T05:21:26;5.30;66.20
11647;DHT22;5880;52.342;9.662;2023-11-22T05:23:51;5.30;66.20
11647;DHT22;5880;52.342;9.662;2023-11-22T05:26:20;5.30;66.20
11647;DHT22;5880;52.342;9.662;2023-11-22T05:28:47;5.20;66.20
11647;DHT22;5880;52.342;9.662;2023-11-22T05:31:13;5.20;66.20
11647;DHT22;5880;52.342;9.662;2023-11-22T05:33:39;5.20;66.30
11647;DHT22;5880;52.342;9.662;2023-11-22T05:36:06;5.20;66.20
11647;DHT22;5880;52.342;9.662;2023-11-22T05:38:33;5.10;66.10
11647;DHT22;5880;52.342;9.662;2023-11-22T05:41:00;5.10;66.00
11647;DHT22;5880;52.342;9.662;2023-11-22T05:43:26;5.10;66.00
11647;DHT22;5880;52.342;9.662;2023-11-22T05:45:53;5.00;65.90
11647;DHT22;5880;52.342;9.662;2023-11-22T05:48:19;5.00;66.00
11647;DHT22;5880;52.342;9.662;2023-11-22T05:50:45;4.90;66.10
11647;DHT22;5880;52.342;9.662;2023-11-22T05:53:11;4.90;66.10
11647;DHT22;5880;52.342;9.662;2023-11-22T05:55:38;4.90;66.20
11647;DHT22;5880;52.342;9.662;2023-11-22T05:58:04;4.80;66.10
11647;DHT22;5880;52.342;9.662;2023-11-22T06:00:29;4.80;66.20
11647;DHT22;5880;52.342;9.662;2023-11-22T06:02:55;4.80;66.30
11647;DHT22;5880;52.342;9.662;2023-11-22T06:05:21;4.80;66.30
11647;DHT22;5880;52.342;9.662;2023-11-22T06:07:47;4.80;66.50
11647;DHT22;5880;52.342;9.662;2023-11-22T06:10:13;4.70;66.50
11647;DHT22;5880;52.342;9.662;2023-11-22T06:12:41;4.70;66.50
11647;DHT22;5880;52.342;9.662;2023-11-22T06:15:07;4.80;66.60
11647;DHT22;5880;52.342;9.662;2023-11-22T06:17:34;4.80;66.60
11647;DHT22;5880;52.342;9.662;2023-11-22T06:19:59;4.80;66.60
11647;DHT22;5880;52.342;9.662;2023-11-22T06:22:25;4.70;67.30
11647;DHT22;5880;52.342;9.662;2023-11-22T06:24:51;4.70;66.70
11647;DHT22;5880;52.342;9.662;2023-11-22T06:27:16;4.80;66.60
11647;DHT22;5880;52.342;9.662;2023-11-22T06:29:42;4.80;66.70
11647;DHT22;5880;52.342;9.662;2023-11-22T06:32:09;4.70;66.60
11647;DHT22;5880;52.342;9.662;2023-11-22T06:34:35;4.70;66.60
11647;DHT22;5880;52.342;9.662;2023-11-22T06:37:02;4.70;66.60
11647;DHT22;5880;52.342;9.662;2023-11-22T06:39:28;4.70;66.60
11647;DHT22;5880;52.342;9.662;2023-11-22T06:41:53;4.70;66.60
11647;DHT22;5880;52.342;9.662;2023-11-22T06:44:19;4.70;66.60
11647;DHT22;5880;52.342;9.662;2023-11-22T06:46:45;4.80;66.60
11647;DHT22;5880;52.342;9.662;2023-11-22T06:49:10;4.80;66.70
11647;DHT22;5880;52.342;9.662;2023-11-22T06:51:36;4.80;66.80
11647;DHT22;5880;52.342;9.662;2023-11-22T06:54:02;4.80;66.80
11647;DHT22;5880;52.342;9.662;2023-11-22T06:56:28;4.80;66.80
11647;DHT22;5880;52.342;9.662;2023-11-22T06:58:54;4.80;66.70
11647;DHT22;5880;52.342;9.662;2023-11-22T07:01:23;4.80;66.70
11647;DHT22;5880;52.342;9.662;2023-11-22T07:03:51;4.80;66.70
11647;DHT22;5880;52.342;9.662;2023-11-22T07:06:18;4.80;66.70
11647;DHT22;5880;52.342;9.662;2023-11-22T07:08:46;4.80;66.80
11647;DHT22;5880;52.342;9.662;2023-11-22T07:11:12;4.80;66.80
11647;DHT22;5880;52.342;9.662;2023-11-22T07:13:39;4.80;66.80
11647;DHT22;5880;52.342;9.662;2023-11-22T07:16:05;4.80;66.70
11647;DHT22;5880;52.342;9.662;2023-11-22T07:18:32;4.80;67.60
11647;DHT22;5880;52.342;9.662;2023-11-22T07:20:59;4.80;66.80
11647;DHT22;5880;52.342;9.662;2023-11-22T07:23:25;4.80;66.90
11647;DHT22;5880;52.342;9.662;2023-11-22T07:25:52;4.90;67.00
11647;DHT22;5880;52.342;9.662;2023-11-22T07:28:18;4.80;67.00
11647;DHT22;5880;52.342;9.662;2023-11-22T07:30:44;4.90;67.20
11647;DHT22;5880;52.342;9.662;2023-11-22T07:33:10;4.90;67.20
11647;DHT22;5880;52.342;9.662;2023-11-22T07:35:36;4.90;67.30
11647;DHT22;5880;52.342;9.662;2023-11-22T07:38:02;4.90;67.40
11647;DHT22;5880;52.342;9.662;2023-11-22T07:40:29;5.00;67.40
11647;DHT22;5880;52.342;9.662;2023-11-22T07:42:54;5.00;67.40
11647;DHT22;5880;52.342;9.662;2023-11-22T07:45:20;5.00;67.40
11647;DHT22;5880;52.342;9.662;2023-11-22T07:47:46;5.10;67.70
11647;DHT22;5880;52.342;9.662;2023-11-22T07:50:12;5.10;67.70
11647;DHT22;5880;52.342;9.662;2023-11-22T07:52:39;5.10;67.80
11647;DHT22;5880;52.342;9.662;2023-11-22T07:55:07;5.20;67.80
11647;DHT22;5880;52.342;9.662;2023-11-22T07:57:34;5.20;67.70
11647;DHT22;5880;52.342;9.662;2023-11-22T08:00:00;5.30;67.80
11647;DHT22;5880;52.342;9.662;2023-11-22T08:02:26;5.30;67.90
11647;DHT22;5880;52.342;9.662;2023-11-22T08:04:52;5.30;67.80
11647;DHT22;5880;52.342;9.662;2023-11-22T08:07:18;5.40;67.60
11647;DHT22;5880;52.342;9.662;2023-11-22T08:09:44;5.40;67.50
11647;DHT22;5880;52.342;9.662;2023-11-22T08:12:09;5.40;67.40
11647;DHT22;5880;52.342;9.662;2023-11-22T08:14:37;5.50;67.40
11647;DHT22;5880;52.342;9.662;2023-11-22T08:17:03;5.40;67.40
11647;DHT22;5880;52.342;9.662;2023-11-22T08:19:31;5.50;67.60
11647;DHT22;5880;52.342;9.662;2023-11-22T08:21:57;5.50;67.60
11647;DHT22;5880;52.342;9.662;2023-11-22T08:24:23;5.50;68.40
11647;DHT22;5880;52.342;9.662;2023-11-22T08:26:48;5.60;67.60
11647;DHT22;5880;52.342;9.662;2023-11-22T08:29:14;5.60;67.50
11647;DHT22;5880;52.342;9.662;2023-11-22T08:31:41;5.60;67.50
11647;DHT22;5880;52.342;9.662;2023-11-22T08:34:07;5.70;67.70
11647;DHT22;5880;52.342;9.662;2023-11-22T08:36:35;5.70;67.70
11647;DHT22;5880;52.342;9.662;2023-11-22T08:39:02;5.70;67.60
11647;DHT22;5880;52.342;9.662;2023-11-22T08:41:28;5.80;67.50
11647;DHT22;5880;52.342;9.662;2023-11-22T08:43:55;5.80;67.40
11647;DHT22;5880;52.342;9.662;2023-11-22T08:46:22;5.80;67.40
11647;DHT22;5880;52.342;9.662;2023-11-22T08:48:49;5.90;67.50
11647;DHT22;5880;52.342;9.662;2023-11-22T08:51:16;5.90;67.60
11647;DHT22;5880;52.342;9.662;2023-11-22T08:53:43;5.90;67.70
11647;DHT22;5880;52.342;9.662;2023-11-22T08:56:10;6.00;67.80
11647;DHT22;5880;52.342;9.662;2023-11-22T08:58:37;6.00;67.80
11647;DHT22;5880;52.342;9.662;2023-11-22T09:01:04;6.10;67.80
11647;DHT22;5880;52.342;9.662;2023-11-22T09:03:31;6.10;67.80
11647;DHT22;5880;52.342;9.662;2023-11-22T09:05:58;6.20;67.80
11647;DHT22;5880;52.342;9.662;2023-11-22T09:08:23;6.20;67.50
11647;DHT22;5880;52.342;9.662;2023-11-22T09:10:49;6.30;67.50
11647;DHT22;5880;52.342;9.662;2023-11-22T09:13:16;6.30;67.20
11647;DHT22;5880;52.342;9.662;2023-11-22T09:15:42;6.30;67.30
11647;DHT22;5880;52.342;9.662;2023-11-22T09:18:10;6.30;67.30
11647;DHT22;5880;52.342;9.662;2023-11-22T09:20:38;6.40;67.40
11647;DHT22;5880;52.342;9.662;2023-11-22T09:23:04;6.40;67.40
11647;DHT22;5880;52.342;9.662;2023-11-22T09:25:30;6.40;67.30
11647;DHT22;5880;52.342;9.662;2023-11-22T09:27:58;6.50;67.40
11647;DHT22;5880;52.342;9.662;2023-11-22T09:30:33;6.50;67.30
11647;DHT22;5880;52.342;9.662;2023-11-22T09:35:38;6.60;67.30
11647;DHT22;5880;52.342;9.662;2023-11-22T09:38:06;6.60;67.20
11647;DHT22;5880;52.342;9.662;2023-11-22T09:40:48;6.60;67.00
11647;DHT22;5880;52.342;9.662;2023-11-22T09:43:15;6.60;66.80
11647;DHT22;5880;52.342;9.662;2023-11-22T09:45:44;6.60;66.90
11647;DHT22;5880;52.342;9.662;2023-11-22T09:48:16;6.60;66.60
11647;DHT22;5880;52.342;9.662;2023-11-22T09:56:03;6.60;66.50
11647;DHT22;5880;52.342;9.662;2023-11-22T09:58:30;6.60;66.60
11647;DHT22;5880;52.342;9.662;2023-11-22T10:01:00;6.60;66.70
11647;DHT22;5880;52.342;9.662;2023-11-22T10:03:27;6.70;66.70
11647;DHT22;5880;52.342;9.662;2023-11-22T10:05:57;6.70;66.60
11647;DHT22;5880;52.342;9.662;2023-11-22T10:08:27;6.70;66.80
11647;DHT22;5880;52.342;9.662;2023-11-22T10:10:55;6.70;66.70
11647;DHT22;5880;52.342;9.662;2023-11-22T10:13:24;6.70;66.60
11647;DHT22;5880;52.342;9.662;2023-11-22T10:15:50;6.80;66.70
11647;DHT22;5880;52.342;9.662;2023-11-22T10:18:16;6.80;66.70
11647;DHT22;5880;52.342;9.662;2023-11-22T10:20:44;6.80;66.60
11647;DHT22;5880;52.342;9.662;2023-11-22T10:23:16;6.90;66.90
11647;DHT22;5880;52.342;9.662;2023-11-22T10:25:50;6.90;66.80
11647;DHT22;5880;52.342;9.662;2023-11-22T10:28:22;7.00;66.60
11647;DHT22;5880;52.342;9.662;2023-11-22T10:30:51;7.00;66.30
11647;DHT22;5880;52.342;9.662;2023-11-22T10:33:17;7.00;66.00
11647;DHT22;5880;52.342;9.662;2023-11-22T10:35:47;7.10;66.10
11647;DHT22;5880;52.342;9.662;2023-11-22T10:38:14;7.10;66.10
11647;DHT22;5880;52.342;9.662;2023-11-22T10:40:40;7.10;65.90
11647;DHT22;5880;52.342;9.662;2023-11-22T10:43:07;7.20;65.60
11647;DHT22;5880;52.342;9.662;2023-11-22T10:45:35;7.20;65.10
11647;DHT22;5880;52.342;9.662;2023-11-22T10:48:03;7.20;64.90
11647;DHT22;5880;52.342;9.662;2023-11-22T10:50:29;7.20;64.70
11647;DHT22;5880;52.342;9.662;2023-11-22T10:52:57;7.20;64.50
11647;DHT22;5880;52.342;9.662;2023-11-22T10:55:32;7.20;64.90
11647;DHT22;5880;52.342;9.662;2023-11-22T10:58:04;7.20;65.00
11647;DHT22;5880;52.342;9.662;2023-11-22T11:00:32;7.30;64.90
11647;DHT22;5880;52.342;9.662;2023-11-22T11:03:07;7.30;65.20
11647;DHT22;5880;52.342;9.662;2023-11-22T11:05:41;7.30;65.00
11647;DHT22;5880;52.342;9.662;2023-11-22T11:08:12;7.30;64.80
11647;DHT22;5880;52.342;9.662;2023-11-22T11:10:42;7.30;64.50
11647;DHT22;5880;52.342;9.662;2023-11-22T11:13:09;7.30;64.40
11647;DHT22;5880;52.342;9.662;2023-11-22T11:15:38;7.30;64.40
11647;DHT22;5880;52.342;9.662;2023-11-22T11:18:09;7.30;64.20
11647;DHT22;5880;52.342;9.662;2023-11-22T11:20:57;7.30;64.00
11647;DHT22;5880;52.342;9.662;2023-11-22T11:23:26;7.40;63.80
11647;DHT22;5880;52.342;9.662;2023-11-22T11:25:57;7.30;64.60
11647;DHT22;5880;52.342;9.662;2023-11-22T11:28:25;7.40;64.40
11647;DHT22;5880;52.342;9.662;2023-11-22T11:30:52;7.40;64.40
11647;DHT22;5880;52.342;9.662;2023-11-22T11:35:53;7.50;63.50
11647;DHT22;5880;52.342;9.662;2023-11-22T11:38:30;7.50;63.60
11647;DHT22;5880;52.342;9.662;2023-11-22T11:41:10;7.50;63.50
11647;DHT22;5880;52.342;9.662;2023-11-22T11:43:44;7.50;63.70
11647;DHT22;5880;52.342;9.662;2023-11-22T11:46:16;7.50;63.30
11647;DHT22;5880;52.342;9.662;2023-11-22T11:48:49;7.50;63.30
11647;DHT22;5880;52.342;9.662;2023-11-22T11:51:17;7.60;63.80
11647;DHT22;5880;52.342;9.662;2023-11-22T11:53:47;7.50;63.30
11647;DHT22;5880;52.342;9.662;2023-11-22T11:56:13;7.50;62.80
11647;DHT22;5880;52.342;9.662;2023-11-22T11:58:41;7.50;62.70
11647;DHT22;5880;52.342;9.662;2023-11-22T12:01:08;7.60;62.50
11647;DHT22;5880;52.342;9.662;2023-11-22T12:03:36;7.60;62.80
11647;DHT22;5880;52.342;9.662;2023-11-22T12:06:06;7.50;62.70
11647;DHT22;5880;52.342;9.662;2023-11-22T12:08:33;7.50;62.20
11647;DHT22;5880;52.342;9.662;2023-11-22T12:11:04;7.50;63.10
11647;DHT22;5880;52.342;9.662;2023-11-22T12:13:34;7.50;62.20
11647;DHT22;5880;52.342;9.662;2023-11-22T12:16:04;7.50;62.00
11647;DHT22;5880;52.342;9.662;2023-11-22T12:18:40;7.50;62.00
11647;DHT22;5880;52.342;9.662;2023-11-22T12:21:08;7.50;61.60
11647;DHT22;5880;52.342;9.662;2023-11-22T12:23:38;7.50;62.20
11647;DHT22;5880;52.342;9.662;2023-11-22T12:26:05;7.50;62.00
11647;DHT22;5880;52.342;9.662;2023-11-22T12:28:36;7.50;62.10
11647;DHT22;5880;52.342;9.662;2023-11-22T12:31:12;7.40;61.70
11647;DHT22;5880;52.342;9.662;2023-11-22T12:33:40;7.50;61.30
11647;DHT22;5880;52.342;9.662;2023-11-22T12:36:09;7.40;61.70
11647;DHT22;5880;52.342;9.662;2023-11-22T12:38:36;7.40;61.60
11647;DHT22;5880;52.342;9.662;2023-11-22T12:41:03;7.40;61.80
11647;DHT22;5880;52.342;9.662;2023-11-22T12:43:31;7.30;62.00
11647;DHT22;5880;52.342;9.662;2023-11-22T12:46:02;7.30;62.30
11647;DHT22;5880;52.342;9.662;2023-11-22T12:48:31;7.30;62.30
11647;DHT22;5880;52.342;9.662;2023-11-22T12:50:58;7.30;62.10
11647;DHT22;5880;52.342;9.662;2023-11-22T12:53:25;7.30;61.90
11647;DHT22;5880;52.342;9.662;2023-11-22T12:55:54;7.30;62.00
11647;DHT22;5880;52.342;9.662;2023-11-22T12:58:24;7.30;62.00
11647;DHT22;5880;52.342;9.662;2023-11-22T13:00:55;7.30;61.90
11647;DHT22;5880;52.342;9.662;2023-11-22T13:03:24;7.30;62.00
11647;DHT22;5880;52.342;9.662;2023-11-22T13:05:53;7.30;62.10
11647;DHT22;5880;52.342;9.662;2023-11-22T13:08:20;7.30;62.10
11647;DHT22;5880;52.342;9.662;2023-11-22T13:10:54;7.20;61.60
11647;DHT22;5880;52.342;9.662;2023-11-22T13:13:23;7.20;61.50
11647;DHT22;5880;52.342;9.662;2023-11-22T13:15:50;7.20;61.70
11647;DHT22;5880;52.342;9.662;2023-11-22T13:18:17;7.20;61.60
11647;DHT22;5880;52.342;9.662;2023-11-22T13:20:43;7.20;61.60
11647;DHT22;5880;52.342;9.662;2023-11-22T13:23:10;7.20;61.60
11647;DHT22;5880;52.342;9.662;2023-11-22T13:25:40;7.20;61.60
11647;DHT22;5880;52.342;9.662;2023-11-22T13:28:09;7.20;61.60
11647;DHT22;5880;52.342;9.662;2023-11-22T13:30:35;7.10;61.50
11647;DHT22;5880;52.342;9.662;2023-11-22T13:33:01;7.20;61.50
11647;DHT22;5880;52.342;9.662;2023-11-22T13:35:28;7.10;61.50
11647;DHT22;5880;52.342;9.662;2023-11-22T13:38:02;7.10;61.40
11647;DHT22;5880;52.342;9.662;2023-11-22T13:40:29;7.10;61.40
11647;DHT22;5880;52.342;9.662;2023-11-22T13:42:58;7.10;61.50
11647;DHT22;5880;52.342;9.662;2023-11-22T13:45:24;7.10;61.40
11647;DHT22;5880;52.342;9.662;2023-11-22T13:47:51;7.00;61.30
11647;DHT22;5880;52.342;9.662;2023-11-22T13:50:24;7.00;61.50
11647;DHT22;5880;52.342;9.662;2023-11-22T13:52:53;7.00;61.70
11647;DHT22;5880;52.342;9.662;2023-11-22T13:55:20;7.00;61.60
11647;DHT22;5880;52.342;9.662;2023-11-22T13:57:53;7.00;61.40
11647;DHT22;5880;52.342;9.662;2023-11-22T14:00:22;7.00;61.40
11647;DHT22;5880;52.342;9.662;2023-11-22T14:02:50;7.00;61.40
11647;DHT22;5880;52.342;9.662;2023-11-22T14:05:18;7.00;61.50
11647;DHT22;5880;52.342;9.662;2023-11-22T14:07:44;7.00;61.50
11647;DHT22;5880;52.342;9.662;2023-11-22T14:10:11;6.90;61.50
11647;DHT22;5880;52.342;9.662;2023-11-22T14:12:37;6.90;61.50
11647;DHT22;5880;52.342;9.662;2023-11-22T14:15:04;7.00;61.50
11647;DHT22;5880;52.342;9.662;2023-11-22T14:17:31;6.90;61.30
11647;DHT22;5880;52.342;9.662;2023-11-22T14:19:57;6.90;61.50
11647;DHT22;5880;52.342;9.662;2023-11-22T14:22:23;6.90;61.60
11647;DHT22;5880;52.342;9.662;2023-11-22T14:24:50;6.90;61.80
11647;DHT22;5880;52.342;9.662;2023-11-22T14:27:19;6.90;61.60
11647;DHT22;5880;52.342;9.662;2023-11-22T14:29:46;6.90;61.50
11647;DHT22;5880;52.342;9.662;2023-11-22T14:32:16;6.90;61.50
11647;DHT22;5880;52.342;9.662;2023-11-22T14:34:42;6.90;61.40
11647;DHT22;5880;52.342;9.662;2023-11-22T14:37:11;6.90;61.60
11647;DHT22;5880;52.342;9.662;2023-11-22T14:39:38;6.90;61.60
11647;DHT22;5880;52.342;9.662;2023-11-22T14:42:07;6.90;61.60
11647;DHT22;5880;52.342;9.662;2023-11-22T14:44:34;6.90;61.80
11647;DHT22;5880;52.342;9.662;2023-11-22T14:47:00;6.90;61.70
11647;DHT22;5880;52.342;9.662;2023-11-22T14:49:32;6.90;61.80
11647;DHT22;5880;52.342;9.662;2023-11-22T14:51:59;6.90;61.60
11647;DHT22;5880;52.342;9.662;2023-11-22T14:54:25;6.90;61.70
11647;DHT22;5880;52.342;9.662;2023-11-22T14:56:51;6.90;61.80
11647;DHT22;5880;52.342;9.662;2023-11-22T14:59:17;6.90;61.80
11647;DHT22;5880;52.342;9.662;2023-11-22T15:01:43;6.90;61.70
11647;DHT22;5880;52.342;9.662;2023-11-22T15:04:11;6.90;61.60
11647;DHT22;5880;52.342;9.662;2023-11-22T15:06:37;6.90;61.40
11647;DHT22;5880;52.342;9.662;2023-11-22T15:09:03;6.90;61.40
11647;DHT22;5880;52.342;9.662;2023-11-22T15:11:36;7.00;61.40
11647;DHT22;5880;52.342;9.662;2023-11-22T15:14:03;6.90;61.40
11647;DHT22;5880;52.342;9.662;2023-11-22T15:16:32;6.90;61.50
11647;DHT22;5880;52.342;9.662;2023-11-22T15:18:58;6.90;61.60
11647;DHT22;5880;52.342;9.662;2023-11-22T15:21:28;6.80;61.30
11647;DHT22;5880;52.342;9.662;2023-11-22T15:23:54;6.90;61.50
11647;DHT22;5880;52.342;9.662;2023-11-22T15:26:23;6.80;61.50
11647;DHT22;5880;52.342;9.662;2023-11-22T15:28:49;6.80;61.60
11647;DHT22;5880;52.342;9.662;2023-11-22T15:31:18;6.80;61.60
11647;DHT22;5880;52.342;9.662;2023-11-22T15:33:45;6.80;61.60
11647;DHT22;5880;52.342;9.662;2023-11-22T15:36:11;6.80;61.60
11647;DHT22;5880;52.342;9.662;2023-11-22T15:38:37;6.80;61.50
11647;DHT22;5880;52.342;9.662;2023-11-22T15:41:03;6.80;61.40
11647;DHT22;5880;52.342;9.662;2023-11-22T15:43:29;6.80;61.50
11647;DHT22;5880;52.342;9.662;2023-11-22T15:45:56;6.80;61.50
11647;DHT22;5880;52.342;9.662;2023-11-22T15:48:22;6.80;61.50
11647;DHT22;5880;52.342;9.662;2023-11-22T15:50:51;6.70;61.50
11647;DHT22;5880;52.342;9.662;2023-11-22T15:53:16;6.80;61.60
11647;DHT22;5880;52.342;9.662;2023-11-22T15:55:42;6.80;61.60
11647;DHT22;5880;52.342;9.662;2023-11-22T15:58:09;6.70;61.60
11647;DHT22;5880;52.342;9.662;2023-11-22T16:00:35;6.70;61.70
11647;DHT22;5880;52.342;9.662;2023-11-22T16:03:01;6.80;61.70
11647;DHT22;5880;52.342;9.662;2023-11-22T16:05:29;6.80;61.70
11647;DHT22;5880;52.342;9.662;2023-11-22T16:07:55;6.70;61.90
11647;DHT22;5880;52.342;9.662;2023-11-22T16:10:20;6.70;61.90
11647;DHT22;5880;52.342;9.662;2023-11-22T16:12:46;6.70;61.80